Time;durP1;ratioP1;P1;durP2;ratioP2;P2;SDS_P1;SDS_P2;PMS_P1;PMS_P2;Temp;Humidity;BMP_temperature;BMP_pressure;BME280_temperature;BME280_humidity;BME280_pressure;Samples;Min_cycle;Max_cycle;Signal;HPM_P1;HPM_P2
2024/01/20 00:02:04;;;;;;;23.70;8.90;;;;;;;;;;5027120;28;20545;-60
2024/01/20 00:04:31;;;;;;;15.60;7.83;;;;;;;;;;5027545;28;20661;-60
2024/01/20 00:06:59;;;;;;;16.23;7.80;;;;;;;;;;5030512;28;20204;-59
2024/01/20 00:09:26;;;;;;;15.30;7.60;;;;;;;;;;5026577;28;20235;-60
2024/01/20 00:11:53;;;;;;;15.50;7.90;;;;;;;;;;5031045;28;20215;-60
2024/01/20 00:14:20;;;;;;;16.03;8.03;;;;;;;;;;5028766;28;20217;-61
2024/01/20 00:16:47;;;;;;;17.10;8.07;;;;;;;;;;5031452;28;20210;-60
2024/01/20 00:19:14;;;;;;;14.77;7.23;;;;;;;;;;5027078;28;20212;-61
2024/01/20 00:21:41;;;;;;;15.43;8.10;;;;;;;;;;5026513;28;20342;-62
2024/01/20 00:24:10;;;;;;;14.13;7.30;;;;;;;;;;5027423;28;20209;-60
2024/01/20 00:26:37;;;;;;;17.27;9.03;;;;;;;;;;5028480;28;20291;-60
2024/01/20 00:29:04;;;;;;;15.73;7.97;;;;;;;;;;5030967;28;20229;-60
2024/01/20 00:31:31;;;;;;;19.33;8.70;;;;;;;;;;5030711;28;20302;-60
2024/01/20 00:33:58;;;;;;;22.07;8.67;;;;;;;;;;5045728;28;20210;-60
2024/01/20 00:36:26;;;;;;;21.30;9.53;;;;;;;;;;5033738;28;20238;-60
2024/01/20 00:38:53;;;;;;;19.30;8.73;;;;;;;;;;5030017;28;20212;-60
2024/01/20 00:41:21;;;;;;;16.13;8.00;;;;;;;;;;5040181;28;20204;-61
2024/01/20 00:43:48;;;;;;;21.37;8.97;;;;;;;;;;5030669;28;20215;-61
2024/01/20 00:46:15;;;;;;;16.77;8.93;;;;;;;;;;5031564;28;20408;-64
2024/01/20 00:48:42;;;;;;;15.53;8.13;;;;;;;;;;5031565;28;20560;-60
2024/01/20 00:51:09;;;;;;;18.73;8.30;;;;;;;;;;5030839;28;20212;-61
2024/01/20 00:53:36;;;;;;;19.53;7.73;;;;;;;;;;5031076;28;20234;-60
2024/01/20 00:56:03;;;;;;;16.97;8.23;;;;;;;;;;5030339;28;20253;-60
2024/01/20 00:58:32;;;;;;;17.10;8.70;;;;;;;;;;5030670;28;20673;-60
2024/01/20 01:00:59;;;;;;;16.60;7.37;;;;;;;;;;5030136;28;20212;-61
2024/01/20 01:03:26;;;;;;;20.37;8.83;;;;;;;;;;5023807;28;20586;-60
2024/01/20 01:05:53;;;;;;;16.50;7.50;;;;;;;;;;5030152;28;20211;-61
2024/01/20 01:08:20;;;;;;;15.40;8.30;;;;;;;;;;5030319;28;20617;-60
2024/01/20 01:10:47;;;;;;;19.90;8.70;;;;;;;;;;5030011;28;20207;-60
2024/01/20 01:13:14;;;;;;;22.60;9.10;;;;;;;;;;5030934;28;20810;-60
2024/01/20 01:15:43;;;;;;;17.73;8.47;;;;;;;;;;5030201;28;20234;-60
2024/01/20 01:18:10;;;;;;;16.20;8.67;;;;;;;;;;5029997;28;20211;-60
2024/01/20 01:20:37;;;;;;;22.67;8.87;;;;;;;;;;5030586;28;20211;-61
2024/01/20 01:23:04;;;;;;;21.73;8.07;;;;;;;;;;5030630;28;20210;-61
2024/01/20 01:25:31;;;;;;;18.40;8.53;;;;;;;;;;5029688;28;20533;-60
2024/01/20 01:27:58;;;;;;;21.60;8.47;;;;;;;;;;5031540;28;20670;-60
2024/01/20 01:30:25;;;;;;;19.27;7.97;;;;;;;;;;5049182;28;20211;-61
2024/01/20 01:32:54;;;;;;;15.30;8.87;;;;;;;;;;5036986;28;20604;-60
2024/01/20 01:35:21;;;;;;;14.03;7.57;;;;;;;;;;5029871;28;20318;-60
2024/01/20 01:37:48;;;;;;;15.30;7.60;;;;;;;;;;5028864;28;20237;-60
2024/01/20 01:40:15;;;;;;;19.57;7.60;;;;;;;;;;5036327;28;20213;-60
2024/01/20 01:42:42;;;;;;;15.63;7.50;;;;;;;;;;5043476;28;20214;-60
2024/01/20 01:45:09;;;;;;;19.07;8.03;;;;;;;;;;5029388;28;21030;-60
2024/01/20 01:47:37;;;;;;;12.57;6.90;;;;;;;;;;5029728;28;20687;-60
2024/01/20 01:50:05;;;;;;;19.23;8.13;;;;;;;;;;5042470;28;20798;-60
2024/01/20 01:52:33;;;;;;;18.10;7.93;;;;;;;;;;5049745;28;20234;-61
2024/01/20 01:55:00;;;;;;;15.83;7.83;;;;;;;;;;5037237;28;20216;-60
2024/01/20 01:57:27;;;;;;;18.50;7.90;;;;;;;;;;5029414;28;20205;-60
2024/01/20 01:59:54;;;;;;;16.70;8.07;;;;;;;;;;5035135;28;20245;-60
2024/01/20 02:02:22;;;;;;;15.73;6.87;;;;;;;;;;5029274;28;20214;-60
2024/01/20 02:04:49;;;;;;;17.83;8.30;;;;;;;;;;5038790;28;20216;-61
2024/01/20 02:07:17;;;;;;;19.43;7.47;;;;;;;;;;5041228;28;20198;-60
2024/01/20 02:09:45;;;;;;;15.13;7.77;;;;;;;;;;5027993;28;20216;-60
2024/01/20 02:12:14;;;;;;;17.83;7.97;;;;;;;;;;5029978;28;20215;-60
2024/01/20 02:14:41;;;;;;;20.47;7.83;;;;;;;;;;5039103;28;20231;-60
2024/01/20 02:17:08;;;;;;;16.30;7.07;;;;;;;;;;5032990;28;20229;-60
2024/01/20 02:19:37;;;;;;;19.93;7.73;;;;;;;;;;5039826;28;20209;-60
2024/01/20 02:22:10;;;;;;;13.63;6.33;;;;;;;;;;5038987;28;20241;-60
2024/01/20 02:24:37;;;;;;;17.63;7.60;;;;;;;;;;5035832;28;20208;-60
2024/01/20 02:27:05;;;;;;;17.93;8.30;;;;;;;;;;5028731;28;20224;-60
2024/01/20 02:29:32;;;;;;;15.93;7.90;;;;;;;;;;5029135;28;20216;-60
2024/01/20 02:31:59;;;;;;;16.87;7.70;;;;;;;;;;5028835;28;20595;-60
2024/01/20 02:34:27;;;;;;;17.07;8.03;;;;;;;;;;5028557;28;20684;-60
2024/01/20 02:36:54;;;;;;;18.20;7.70;;;;;;;;;;5028952;28;20294;-60
2024/01/20 02:39:22;;;;;;;16.57;7.37;;;;;;;;;;5028405;28;20680;-60
2024/01/20 02:41:49;;;;;;;17.27;8.10;;;;;;;;;;5032074;28;20231;-60
2024/01/20 02:44:16;;;;;;;16.20;7.23;;;;;;;;;;5035575;28;20209;-60
2024/01/20 02:46:43;;;;;;;16.57;8.00;;;;;;;;;;5028917;28;20208;-60
2024/01/20 02:49:10;;;;;;;13.90;6.97;;;;;;;;;;5028403;28;20215;-60
2024/01/20 02:51:37;;;;;;;13.87;7.10;;;;;;;;;;5030194;28;20690;-60
2024/01/20 02:54:04;;;;;;;17.90;8.03;;;;;;;;;;5030141;28;20213;-60
2024/01/20 02:56:33;;;;;;;16.50;7.47;;;;;;;;;;5028120;28;20253;-60
2024/01/20 02:59:00;;;;;;;17.27;7.87;;;;;;;;;;5027887;28;20228;-60
2024/01/20 03:01:27;;;;;;;16.37;7.37;;;;;;;;;;5028256;28;20678;-60
2024/01/20 03:03:54;;;;;;;23.47;8.50;;;;;;;;;;5039651;28;20216;-60
2024/01/20 03:06:21;;;;;;;17.73;7.17;;;;;;;;;;5028168;28;20608;-60
2024/01/20 03:08:48;;;;;;;14.17;7.37;;;;;;;;;;5027985;28;20243;-60
2024/01/20 03:11:15;;;;;;;17.20;6.97;;;;;;;;;;5035184;28;20275;-60
2024/01/20 03:13:43;;;;;;;14.73;6.77;;;;;;;;;;5028723;28;20546;-60
2024/01/20 03:16:11;;;;;;;17.47;7.03;;;;;;;;;;5027748;28;20287;-60
2024/01/20 03:18:38;;;;;;;12.60;7.10;;;;;;;;;;5028122;28;20216;-60
2024/01/20 03:21:05;;;;;;;16.83;7.20;;;;;;;;;;5028526;28;20204;-60
2024/01/20 03:23:32;;;;;;;11.10;6.73;;;;;;;;;;5027463;28;20219;-60
2024/01/20 03:25:59;;;;;;;16.20;7.67;;;;;;;;;;5027738;28;20201;-60
2024/01/20 03:28:28;;;;;;;21.67;7.33;;;;;;;;;;5028326;28;20220;-60
2024/01/20 03:30:56;;;;;;;14.90;7.17;;;;;;;;;;5027536;28;20693;-60
2024/01/20 03:33:23;;;;;;;14.40;6.73;;;;;;;;;;5028474;28;20213;-60
2024/01/20 03:35:50;;;;;;;19.00;7.23;;;;;;;;;;5028171;28;20225;-61
2024/01/20 03:38:18;;;;;;;15.70;7.60;;;;;;;;;;5027426;28;20246;-60
2024/01/20 03:40:45;;;;;;;13.07;7.07;;;;;;;;;;5027582;28;20211;-60
2024/01/20 03:43:12;;;;;;;14.23;7.40;;;;;;;;;;5028070;28;20202;-60
2024/01/20 03:45:39;;;;;;;23.13;8.17;;;;;;;;;;5027736;28;20874;-60
2024/01/20 03:48:08;;;;;;;22.97;8.60;;;;;;;;;;5027294;28;20318;-60
2024/01/20 03:50:35;;;;;;;18.33;7.63;;;;;;;;;;5027919;28;20216;-60
2024/01/20 03:53:02;;;;;;;22.17;9.23;;;;;;;;;;5027483;28;20208;-60
2024/01/20 03:55:29;;;;;;;19.37;8.50;;;;;;;;;;5038705;28;20295;-60
2024/01/20 03:57:56;;;;;;;24.07;8.87;;;;;;;;;;5047608;28;20986;-60
2024/01/20 04:00:23;;;;;;;19.10;8.37;;;;;;;;;;5043402;28;20211;-60
2024/01/20 04:02:50;;;;;;;25.80;9.27;;;;;;;;;;5027572;28;20214;-60
2024/01/20 04:05:19;;;;;;;21.30;8.53;;;;;;;;;;5032550;28;20787;-60
2024/01/20 04:07:46;;;;;;;23.23;8.53;;;;;;;;;;5029226;28;20650;-60
2024/01/20 04:10:14;;;;;;;16.30;7.07;;;;;;;;;;5027650;28;20212;-59
2024/01/20 04:12:42;;;;;;;20.97;8.57;;;;;;;;;;5029564;28;20400;-60
2024/01/20 04:15:09;;;;;;;15.47;7.13;;;;;;;;;;5027335;28;20308;-60
2024/01/20 04:17:36;;;;;;;21.67;7.67;;;;;;;;;;5045947;28;20230;-60
2024/01/20 04:20:05;;;;;;;16.97;7.80;;;;;;;;;;5029100;28;20243;-60
2024/01/20 04:22:33;;;;;;;17.50;6.80;;;;;;;;;;5028412;28;20236;-59
2024/01/20 04:25:00;;;;;;;22.00;7.70;;;;;;;;;;5026742;28;20227;-60
2024/01/20 04:27:27;;;;;;;19.50;6.97;;;;;;;;;;5036246;28;20218;-60
2024/01/20 04:29:54;;;;;;;18.17;8.03;;;;;;;;;;5047283;28;20309;-59
2024/01/20 04:32:21;;;;;;;18.83;6.83;;;;;;;;;;5046921;28;20685;-60
2024/01/20 04:34:48;;;;;;;20.60;7.47;;;;;;;;;;5047348;28;20222;-60
2024/01/20 04:37:15;;;;;;;19.93;7.47;;;;;;;;;;5027594;28;20238;-60
2024/01/20 04:39:43;;;;;;;18.77;7.17;;;;;;;;;;5041338;28;20210;-59
2024/01/20 04:42:10;;;;;;;18.73;6.97;;;;;;;;;;5028039;28;20683;-60
2024/01/20 04:44:37;;;;;;;17.83;6.90;;;;;;;;;;5027284;28;20220;-59
2024/01/20 04:47:05;;;;;;;19.00;7.70;;;;;;;;;;5024901;28;20206;-60
2024/01/20 04:49:32;;;;;;;17.77;5.83;;;;;;;;;;5025469;28;20669;-60
2024/01/20 04:52:01;;;;;;;15.97;7.10;;;;;;;;;;5028637;28;20221;-59
2024/01/20 04:54:28;;;;;;;18.80;7.37;;;;;;;;;;5041825;28;20215;-60
2024/01/20 04:56:57;;;;;;;14.73;6.20;;;;;;;;;;5043891;28;20218;-60
2024/01/20 04:59:24;;;;;;;17.03;6.97;;;;;;;;;;5046675;28;20230;-60
2024/01/20 05:01:52;;;;;;;17.13;7.17;;;;;;;;;;5029160;28;20212;-60
2024/01/20 05:04:19;;;;;;;15.97;7.03;;;;;;;;;;5017954;28;20208;-60
2024/01/20 05:06:46;;;;;;;17.03;7.13;;;;;;;;;;5044444;28;20204;-60
2024/01/20 05:09:13;;;;;;;14.70;7.10;;;;;;;;;;5046550;28;20256;-60
2024/01/20 05:11:40;;;;;;;16.27;6.07;;;;;;;;;;5027308;28;20440;-59
2024/01/20 05:14:09;;;;;;;15.67;5.97;;;;;;;;;;5042524;28;21490;-60
2024/01/20 05:16:36;;;;;;;17.27;6.37;;;;;;;;;;5030372;28;20227;-60
2024/01/20 05:19:03;;;;;;;12.77;6.10;;;;;;;;;;5030216;28;20313;-60
2024/01/20 05:21:30;;;;;;;15.37;6.37;;;;;;;;;;5030232;28;20578;-60
2024/01/20 05:23:57;;;;;;;14.37;7.23;;;;;;;;;;5029901;28;20215;-60
2024/01/20 05:26:24;;;;;;;19.63;6.70;;;;;;;;;;5030327;28;20207;-59
2024/01/20 05:28:51;;;;;;;17.20;6.70;;;;;;;;;;5035695;28;20647;-60
2024/01/20 05:31:20;;;;;;;15.17;6.43;;;;;;;;;;5029772;28;20204;-60
2024/01/20 05:33:47;;;;;;;15.43;7.20;;;;;;;;;;5033227;28;20220;-59
2024/01/20 05:36:14;;;;;;;15.87;6.63;;;;;;;;;;5042338;28;20210;-64
2024/01/20 05:38:41;;;;;;;15.63;6.83;;;;;;;;;;5031084;28;20210;-59
2024/01/20 05:41:08;;;;;;;12.93;6.70;;;;;;;;;;5040785;28;20226;-63
2024/01/20 05:43:35;;;;;;;16.50;7.27;;;;;;;;;;5030173;28;20216;-60
2024/01/20 05:46:05;;;;;;;13.20;6.80;;;;;;;;;;5030016;28;20638;-60
2024/01/20 05:48:34;;;;;;;16.70;6.30;;;;;;;;;;5040812;28;20222;-59
2024/01/20 05:51:01;;;;;;;17.80;6.80;;;;;;;;;;5042408;28;20211;-59
2024/01/20 05:53:28;;;;;;;15.13;6.40;;;;;;;;;;5042187;28;20225;-59
2024/01/20 05:55:55;;;;;;;12.83;6.27;;;;;;;;;;5029931;28;20242;-60
2024/01/20 05:58:22;;;;;;;12.93;6.40;;;;;;;;;;5040105;28;20314;-60
2024/01/20 06:00:49;;;;;;;17.87;7.30;;;;;;;;;;5035762;28;20237;-60
2024/01/20 06:03:16;;;;;;;15.97;6.63;;;;;;;;;;5048420;28;20635;-60
2024/01/20 06:05:45;;;;;;;12.93;5.47;;;;;;;;;;5034574;28;20213;-60
2024/01/20 06:08:12;;;;;;;16.93;6.23;;;;;;;;;;5031175;28;20242;-60
2024/01/20 06:10:39;;;;;;;13.43;6.13;;;;;;;;;;5022483;28;20835;-60
2024/01/20 06:13:06;;;;;;;15.37;5.67;;;;;;;;;;5028627;28;20678;-59
2024/01/20 06:15:33;;;;;;;15.60;6.60;;;;;;;;;;5029261;28;20221;-60
2024/01/20 06:18:00;;;;;;;16.63;6.23;;;;;;;;;;5029166;28;20321;-60
2024/01/20 06:20:27;;;;;;;13.60;6.60;;;;;;;;;;5029506;28;20264;-60
2024/01/20 06:22:56;;;;;;;14.07;6.30;;;;;;;;;;5026649;28;20212;-60
2024/01/20 06:25:23;;;;;;;14.80;6.40;;;;;;;;;;5038167;28;20208;-59
2024/01/20 06:27:50;;;;;;;14.97;5.30;;;;;;;;;;5028943;28;20214;-60
2024/01/20 06:30:17;;;;;;;14.13;6.57;;;;;;;;;;5028635;28;20214;-59
2024/01/20 06:32:45;;;;;;;14.33;5.77;;;;;;;;;;5038562;28;20204;-60
2024/01/20 06:35:12;;;;;;;11.07;6.03;;;;;;;;;;5048971;28;20268;-60
2024/01/20 06:37:39;;;;;;;14.60;6.40;;;;;;;;;;5032045;28;20242;-60
2024/01/20 06:40:08;;;;;;;17.23;6.53;;;;;;;;;;5029128;28;20210;-59
2024/01/20 06:42:35;;;;;;;17.70;7.13;;;;;;;;;;5029879;28;20222;-59
2024/01/20 06:45:02;;;;;;;15.47;7.30;;;;;;;;;;5028711;28;20218;-60
2024/01/20 06:47:30;;;;;;;21.37;6.50;;;;;;;;;;5029179;28;20216;-60
2024/01/20 06:49:57;;;;;;;16.20;6.80;;;;;;;;;;5028231;28;20212;-60
2024/01/20 06:52:24;;;;;;;18.07;7.77;;;;;;;;;;5039578;28;20210;-59
2024/01/20 06:54:51;;;;;;;15.57;6.37;;;;;;;;;;5028554;28;20210;-59
2024/01/20 06:57:19;;;;;;;20.37;6.53;;;;;;;;;;5028286;28;20740;-59
2024/01/20 06:59:46;;;;;;;13.73;6.23;;;;;;;;;;5038595;28;20209;-60
2024/01/20 07:02:13;;;;;;;18.07;7.10;;;;;;;;;;5027986;28;20207;-60
2024/01/20 07:04:40;;;;;;;18.27;6.47;;;;;;;;;;5026478;28;20231;-59
2024/01/20 07:07:07;;;;;;;18.27;6.60;;;;;;;;;;5028432;28;20210;-58
2024/01/20 07:09:39;;;;;;;14.40;7.07;;;;;;;;;;5027331;28;20241;-58
2024/01/20 07:12:06;;;;;;;19.63;7.17;;;;;;;;;;5029011;28;20204;-59
2024/01/20 07:14:35;;;;;;;18.23;7.37;;;;;;;;;;5028387;28;20226;-59
2024/01/20 07:17:05;;;;;;;15.30;6.93;;;;;;;;;;5028242;28;20230;-59
2024/01/20 07:19:32;;;;;;;16.63;7.30;;;;;;;;;;5027841;28;20216;-59
2024/01/20 07:21:59;;;;;;;20.13;6.83;;;;;;;;;;5027631;28;20231;-59
2024/01/20 07:24:27;;;;;;;17.37;7.20;;;;;;;;;;5027878;28;20208;-59
2024/01/20 07:26:54;;;;;;;17.00;6.90;;;;;;;;;;5027395;28;20217;-61
2024/01/20 07:29:21;;;;;;;15.70;6.30;;;;;;;;;;5028478;28;20242;-59
2024/01/20 07:31:50;;;;;;;14.60;6.23;;;;;;;;;;5027509;28;20237;-62
2024/01/20 07:34:17;;;;;;;17.53;6.53;;;;;;;;;;5037428;28;20560;-60
2024/01/20 07:36:44;;;;;;;14.87;6.33;;;;;;;;;;5045025;28;20219;-60
2024/01/20 07:39:11;;;;;;;16.83;6.90;;;;;;;;;;5018238;28;20227;-60
2024/01/20 07:41:38;;;;;;;21.17;6.80;;;;;;;;;;5009894;28;20216;-59
2024/01/20 07:44:05;;;;;;;18.30;8.67;;;;;;;;;;5035919;28;20210;-60
2024/01/20 07:46:32;;;;;;;14.87;6.93;;;;;;;;;;5041122;28;20210;-60
2024/01/20 07:49:01;;;;;;;23.63;7.73;;;;;;;;;;5034221;28;20207;-60
2024/01/20 07:51:28;;;;;;;19.33;6.90;;;;;;;;;;5031528;28;20233;-60
2024/01/20 07:53:55;;;;;;;18.23;6.77;;;;;;;;;;5027434;28;20204;-60
2024/01/20 07:56:22;;;;;;;15.93;6.60;;;;;;;;;;5032352;28;20204;-60
2024/01/20 07:58:49;;;;;;;23.87;7.70;;;;;;;;;;5034895;28;20231;-60
2024/01/20 08:01:17;;;;;;;16.87;5.87;;;;;;;;;;5027199;28;20210;-60
2024/01/20 08:03:44;;;;;;;18.30;6.50;;;;;;;;;;5027782;28;20220;-60
2024/01/20 08:06:13;;;;;;;19.27;6.57;;;;;;;;;;5041194;28;20224;-60
2024/01/20 08:08:40;;;;;;;18.17;6.53;;;;;;;;;;5038315;28;20243;-60
2024/01/20 08:11:07;;;;;;;21.90;7.77;;;;;;;;;;5028549;28;20208;-60
2024/01/20 08:13:34;;;;;;;14.27;7.20;;;;;;;;;;5026292;28;20214;-60
2024/01/20 08:16:01;;;;;;;17.93;7.07;;;;;;;;;;5027029;28;20627;-60
2024/01/20 08:18:28;;;;;;;15.17;6.70;;;;;;;;;;5027397;28;20232;-60
2024/01/20 08:20:55;;;;;;;17.87;7.67;;;;;;;;;;5027019;28;20209;-59
2024/01/20 08:23:24;;;;;;;16.93;6.30;;;;;;;;;;5043059;28;20293;-59
2024/01/20 08:25:51;;;;;;;22.20;7.93;;;;;;;;;;5046288;28;20211;-59
2024/01/20 08:28:18;;;;;;;19.47;7.67;;;;;;;;;;5047137;28;20214;-59
2024/01/20 08:30:45;;;;;;;20.60;7.13;;;;;;;;;;5046315;28;20217;-59
2024/01/20 08:33:12;;;;;;;20.20;7.93;;;;;;;;;;5027189;28;20209;-59
2024/01/20 08:35:39;;;;;;;17.80;7.17;;;;;;;;;;5030134;28;20210;-59
2024/01/20 08:38:09;;;;;;;20.40;7.60;;;;;;;;;;5026803;28;20228;-59
2024/01/20 08:40:37;;;;;;;21.33;7.80;;;;;;;;;;5028742;28;20232;-59
2024/01/20 08:43:05;;;;;;;19.27;7.70;;;;;;;;;;5024822;28;20208;-59
2024/01/20 08:45:32;;;;;;;23.80;8.03;;;;;;;;;;5044110;28;20222;-59
2024/01/20 08:47:59;;;;;;;19.63;8.03;;;;;;;;;;5029381;28;20906;-59
2024/01/20 08:50:26;;;;;;;21.33;9.17;;;;;;;;;;5034291;28;20759;-59
2024/01/20 08:52:53;;;;;;;23.17;8.53;;;;;;;;;;5046140;28;20727;-59
2024/01/20 08:55:20;;;;;;;19.27;7.97;;;;;;;;;;5051022;28;20226;-60
2024/01/20 08:57:49;;;;;;;26.70;8.80;;;;;;;;;;5034257;28;20318;-59
2024/01/20 09:00:16;;;;;;;22.40;9.73;;;;;;;;;;5030523;28;20201;-59
2024/01/20 09:02:43;;;;;;;24.57;9.37;;;;;;;;;;5031196;28;20211;-59
2024/01/20 09:05:12;;;;;;;21.93;9.90;;;;;;;;;;5036690;28;20208;-59
2024/01/20 09:07:39;;;;;;;20.87;8.73;;;;;;;;;;5030098;28;20224;-59
2024/01/20 09:10:07;;;;;;;23.33;8.30;;;;;;;;;;5030359;28;20647;-59
2024/01/20 09:12:34;;;;;;;14.40;6.60;;;;;;;;;;5045081;28;20231;-58
2024/01/20 09:15:03;;;;;;;22.40;8.87;;;;;;;;;;5038463;28;20220;-59
2024/01/20 09:17:30;;;;;;;22.87;9.47;;;;;;;;;;5031291;28;20593;-64
2024/01/20 09:19:57;;;;;;;23.37;9.93;;;;;;;;;;5029830;28;20208;-60
2024/01/20 09:22:24;;;;;;;23.10;9.33;;;;;;;;;;5031045;28;20216;-59
2024/01/20 09:24:52;;;;;;;20.97;8.33;;;;;;;;;;5027197;28;20208;-60
2024/01/20 09:27:19;;;;;;;16.80;7.53;;;;;;;;;;5030286;28;20297;-59
2024/01/20 09:29:46;;;;;;;16.97;6.57;;;;;;;;;;5030329;28;20212;-59
2024/01/20 09:32:15;;;;;;;21.57;7.93;;;;;;;;;;5029896;28;20212;-59
2024/01/20 09:34:42;;;;;;;17.40;7.17;;;;;;;;;;5029689;28;20512;-60
2024/01/20 09:37:09;;;;;;;14.57;7.20;;;;;;;;;;5030001;28;20211;-60
2024/01/20 09:39:36;;;;;;;20.40;8.10;;;;;;;;;;5029558;28;20228;-59
2024/01/20 09:42:04;;;;;;;17.27;7.07;;;;;;;;;;5039850;28;20299;-60
2024/01/20 09:44:31;;;;;;;15.93;6.33;;;;;;;;;;5039802;28;20205;-61
2024/01/20 09:46:58;;;;;;;12.53;5.63;;;;;;;;;;5030157;28;20402;-61
2024/01/20 09:49:26;;;;;;;14.80;7.53;;;;;;;;;;5029345;28;20315;-62
2024/01/20 09:51:53;;;;;;;15.03;7.07;;;;;;;;;;5034696;28;20315;-61
2024/01/20 09:54:21;;;;;;;14.47;7.80;;;;;;;;;;5029176;28;20204;-61
2024/01/20 09:56:48;;;;;;;19.03;7.67;;;;;;;;;;5029377;28;20212;-60
2024/01/20 09:59:16;;;;;;;17.60;8.47;;;;;;;;;;5028469;28;20228;-58
2024/01/20 10:01:45;;;;;;;16.87;7.70;;;;;;;;;;5029168;28;20212;-59
2024/01/20 10:04:15;;;;;;;15.07;7.43;;;;;;;;;;5029581;28;20205;-60
2024/01/20 10:06:44;;;;;;;14.17;7.17;;;;;;;;;;5029413;28;20205;-59
2024/01/20 10:09:11;;;;;;;17.77;7.17;;;;;;;;;;5029216;28;20232;-60
2024/01/20 10:11:38;;;;;;;19.10;8.50;;;;;;;;;;5029300;28;20230;-59
2024/01/20 10:14:05;;;;;;;20.47;7.73;;;;;;;;;;5029471;28;20212;-60
2024/01/20 10:16:39;;;;;;;16.87;7.83;;;;;;;;;;5040340;28;20211;-60
2024/01/20 10:19:06;;;;;;;19.07;8.23;;;;;;;;;;5049153;28;20257;-61
2024/01/20 10:21:39;;;;;;;17.53;8.50;;;;;;;;;;5043501;28;20317;-63
2024/01/20 10:24:08;;;;;;;24.87;9.17;;;;;;;;;;5049115;28;20298;-61
2024/01/20 10:26:41;;;;;;;18.20;8.07;;;;;;;;;;5040283;28;20224;-61
2024/01/20 10:29:09;;;;;;;17.23;7.53;;;;;;;;;;5029327;28;20259;-60
2024/01/20 10:31:36;;;;;;;18.57;7.73;;;;;;;;;;5029380;28;20632;-60
2024/01/20 10:34:04;;;;;;;19.63;8.60;;;;;;;;;;5029188;28;20220;-59
2024/01/20 10:36:31;;;;;;;21.30;8.20;;;;;;;;;;5028450;28;20202;-61
2024/01/20 10:39:01;;;;;;;18.47;8.60;;;;;;;;;;5028978;28;20228;-61
2024/01/20 10:41:30;;;;;;;22.93;9.07;;;;;;;;;;5029061;28;20260;-62
2024/01/20 10:44:01;;;;;;;17.73;7.27;;;;;;;;;;5028438;28;20227;-61
2024/01/20 10:46:30;;;;;;;16.70;8.03;;;;;;;;;;5034976;28;20205;-62
2024/01/20 10:48:59;;;;;;;18.53;7.47;;;;;;;;;;5047761;28;20613;-60
2024/01/20 10:51:27;;;;;;;17.57;8.93;;;;;;;;;;5035664;28;20248;-60
2024/01/20 10:53:55;;;;;;;16.97;8.07;;;;;;;;;;5035358;28;20243;-60
2024/01/20 10:56:24;;;;;;;14.77;6.43;;;;;;;;;;5028482;28;20443;-60
2024/01/20 10:58:56;;;;;;;15.33;7.50;;;;;;;;;;5028258;28;20356;-59
2024/01/20 11:01:23;;;;;;;17.00;7.33;;;;;;;;;;5026780;28;20204;-59
2024/01/20 11:03:51;;;;;;;12.80;6.57;;;;;;;;;;5035586;28;20295;-59
2024/01/20 11:06:21;;;;;;;17.00;7.80;;;;;;;;;;5048066;28;20204;-61
2024/01/20 11:08:51;;;;;;;15.70;7.67;;;;;;;;;;5047996;28;20250;-60
2024/01/20 11:11:19;;;;;;;13.03;6.20;;;;;;;;;;5038819;28;20212;-60
2024/01/20 11:13:47;;;;;;;18.43;7.57;;;;;;;;;;5030389;28;20838;-59
2024/01/20 11:16:20;;;;;;;18.33;7.97;;;;;;;;;;5035983;28;20200;-60
2024/01/20 11:18:47;;;;;;;17.60;7.27;;;;;;;;;;5026520;28;20794;-60
2024/01/20 11:21:16;;;;;;;14.40;6.97;;;;;;;;;;5027214;28;20662;-62
2024/01/20 11:23:46;;;;;;;18.13;7.73;;;;;;;;;;5042448;28;20211;-60
2024/01/20 11:26:13;;;;;;;20.47;8.93;;;;;;;;;;5027738;28;20295;-60
2024/01/20 11:28:43;;;;;;;18.93;7.63;;;;;;;;;;5026798;28;20897;-60
2024/01/20 11:31:18;;;;;;;17.47;7.40;;;;;;;;;;5026867;28;20633;-60
2024/01/20 11:33:47;;;;;;;20.37;8.40;;;;;;;;;;5027065;28;20208;-60
2024/01/20 11:36:14;;;;;;;20.67;8.87;;;;;;;;;;5027652;28;20215;-59
2024/01/20 11:38:42;;;;;;;26.67;10.03;;;;;;;;;;5027472;28;20284;-60
2024/01/20 11:41:09;;;;;;;21.93;9.40;;;;;;;;;;5027340;28;20205;-60
2024/01/20 11:43:36;;;;;;;24.50;10.07;;;;;;;;;;5027527;28;20213;-60
2024/01/20 11:46:03;;;;;;;20.73;8.53;;;;;;;;;;5037103;28;20666;-60
2024/01/20 11:48:31;;;;;;;19.30;8.63;;;;;;;;;;5028215;28;20606;-60
2024/01/20 11:51:03;;;;;;;19.27;8.70;;;;;;;;;;5029136;28;20213;-60
2024/01/20 11:53:30;;;;;;;23.87;9.90;;;;;;;;;;5024974;28;20306;-60
2024/01/20 11:55:58;;;;;;;23.93;9.07;;;;;;;;;;5026403;28;20287;-61
2024/01/20 11:58:25;;;;;;;22.13;9.77;;;;;;;;;;5025278;28;20309;-60
2024/01/20 12:00:52;;;;;;;21.30;9.00;;;;;;;;;;5026291;28;20217;-61
2024/01/20 12:03:21;;;;;;;26.10;9.30;;;;;;;;;;5036950;28;20215;-60
2024/01/20 12:05:48;;;;;;;27.27;10.20;;;;;;;;;;5027125;28;20216;-61
2024/01/20 12:08:17;;;;;;;23.40;8.43;;;;;;;;;;5015783;28;20243;-60
2024/01/20 12:10:44;;;;;;;22.67;8.90;;;;;;;;;;5025906;28;20746;-64
2024/01/20 12:13:14;;;;;;;20.87;9.23;;;;;;;;;;5026477;28;20802;-61
2024/01/20 12:15:42;;;;;;;18.07;8.67;;;;;;;;;;5023024;28;20211;-60
2024/01/20 12:18:09;;;;;;;20.97;8.37;;;;;;;;;;5027078;28;20204;-61
2024/01/20 12:20:37;;;;;;;25.43;9.97;;;;;;;;;;5026460;28;20280;-59
2024/01/20 12:23:05;;;;;;;21.13;9.43;;;;;;;;;;5026513;28;20262;-63
2024/01/20 12:25:34;;;;;;;25.40;9.93;;;;;;;;;;5026442;28;20210;-59
2024/01/20 12:28:01;;;;;;;26.80;11.13;;;;;;;;;;5026991;28;20215;-62
2024/01/20 12:30:29;;;;;;;21.73;9.13;;;;;;;;;;5027481;28;20198;-62
2024/01/20 12:32:57;;;;;;;25.33;9.73;;;;;;;;;;5024167;28;20217;-60
2024/01/20 12:35:25;;;;;;;20.93;8.63;;;;;;;;;;5026435;28;20210;-60
2024/01/20 12:37:52;;;;;;;18.10;8.17;;;;;;;;;;5029168;28;20218;-60
2024/01/20 12:40:19;;;;;;;19.27;8.67;;;;;;;;;;5025656;28;20573;-60
2024/01/20 12:42:47;;;;;;;20.27;9.07;;;;;;;;;;5025261;28;20206;-61
2024/01/20 12:45:15;;;;;;;23.13;9.40;;;;;;;;;;5028766;28;20220;-60
2024/01/20 12:47:42;;;;;;;21.07;8.77;;;;;;;;;;5031301;28;20213;-61
2024/01/20 12:50:10;;;;;;;24.10;10.20;;;;;;;;;;5025213;28;20213;-60
2024/01/20 12:52:37;;;;;;;23.90;10.37;;;;;;;;;;5024432;28;20711;-60
2024/01/20 12:55:05;;;;;;;24.93;9.97;;;;;;;;;;5024344;28;20211;-60
2024/01/20 12:57:32;;;;;;;24.20;10.20;;;;;;;;;;5021339;28;20250;-60
2024/01/20 13:00:02;;;;;;;23.63;9.53;;;;;;;;;;5024184;28;20227;-60
2024/01/20 13:02:29;;;;;;;24.60;9.57;;;;;;;;;;5016357;28;20238;-59
2024/01/20 13:04:56;;;;;;;24.90;9.90;;;;;;;;;;5029169;28;20221;-61
2024/01/20 13:07:23;;;;;;;22.67;10.07;;;;;;;;;;5027689;28;20215;-59
2024/01/20 13:09:50;;;;;;;25.60;9.43;;;;;;;;;;5044571;28;20211;-61
2024/01/20 13:12:17;;;;;;;24.40;9.57;;;;;;;;;;5035206;28;20212;-60
2024/01/20 13:14:46;;;;;;;19.87;9.27;;;;;;;;;;5029224;28;20836;-61
2024/01/20 13:17:15;;;;;;;24.97;9.83;;;;;;;;;;5038027;28;20295;-61
2024/01/20 13:19:42;;;;;;;21.20;10.10;;;;;;;;;;5029979;28;20296;-61
2024/01/20 13:22:10;;;;;;;24.43;11.20;;;;;;;;;;5028681;28;20206;-60
2024/01/20 13:24:37;;;;;;;24.43;8.73;;;;;;;;;;5029079;28;20214;-61
2024/01/20 13:27:06;;;;;;;23.80;9.70;;;;;;;;;;5028813;28;20706;-61
2024/01/20 13:29:33;;;;;;;18.00;9.20;;;;;;;;;;5024251;28;20656;-61
2024/01/20 13:32:00;;;;;;;22.60;9.53;;;;;;;;;;5023992;28;20224;-61
2024/01/20 13:34:29;;;;;;;21.17;9.47;;;;;;;;;;5027407;28;20222;-61
2024/01/20 13:36:56;;;;;;;16.30;7.53;;;;;;;;;;5040825;28;20300;-61
2024/01/20 13:39:23;;;;;;;22.77;9.13;;;;;;;;;;5009647;28;20238;-61
2024/01/20 13:41:51;;;;;;;23.73;10.30;;;;;;;;;;5026080;28;20223;-60
2024/01/20 13:44:24;;;;;;;21.00;9.63;;;;;;;;;;5036714;28;20229;-62
2024/01/20 13:46:51;;;;;;;25.57;10.83;;;;;;;;;;5029424;28;20284;-62
2024/01/20 13:49:18;;;;;;;26.20;11.07;;;;;;;;;;5033929;28;20205;-62
2024/01/20 13:51:46;;;;;;;30.40;12.03;;;;;;;;;;5030693;28;20232;-62
2024/01/20 13:54:13;;;;;;;24.27;11.17;;;;;;;;;;5027875;28;20221;-62
2024/01/20 13:56:40;;;;;;;24.53;9.90;;;;;;;;;;5028887;28;20843;-62
2024/01/20 13:59:07;;;;;;;25.87;10.70;;;;;;;;;;5036002;28;20699;-62
2024/01/20 14:01:34;;;;;;;18.87;7.93;;;;;;;;;;5035887;28;20836;-62
2024/01/20 14:04:02;;;;;;;20.63;9.90;;;;;;;;;;5038499;28;20202;-62
2024/01/20 14:06:29;;;;;;;21.03;9.23;;;;;;;;;;5049069;28;20218;-62
2024/01/20 14:08:57;;;;;;;22.60;9.47;;;;;;;;;;5034862;28;20249;-62
2024/01/20 14:11:26;;;;;;;19.60;9.13;;;;;;;;;;5028530;28;20206;-62
2024/01/20 14:13:53;;;;;;;22.20;9.87;;;;;;;;;;5028416;28;20213;-59
2024/01/20 14:16:20;;;;;;;23.03;8.73;;;;;;;;;;5027804;28;20876;-59
2024/01/20 14:18:47;;;;;;;22.57;10.17;;;;;;;;;;5028582;28;20219;-59
2024/01/20 14:21:14;;;;;;;25.13;10.23;;;;;;;;;;5044351;28;20259;-60
2024/01/20 14:23:41;;;;;;;28.00;11.60;;;;;;;;;;5030092;28;20210;-62
2024/01/20 14:26:10;;;;;;;27.20;10.23;;;;;;;;;;5020579;28;20799;-62
2024/01/20 14:28:37;;;;;;;23.73;10.37;;;;;;;;;;5023683;28;20248;-61
2024/01/20 14:31:04;;;;;;;26.33;10.90;;;;;;;;;;5031395;28;20201;-61